sensor_id;sensor_type;location;lat;lon;timestamp;P1;durP1;ratioP1;P2;durP2;ratioP2
15665;SDS011;20725;51.196;3.510;2024-02-15T00:00:29;15.80;;;6.70;;
15665;SDS011;20725;51.196;3.510;2024-02-15T00:02:56;10.30;;;6.40;;
15665;SDS011;20725;51.196;3.510;2024-02-15T00:05:24;14.77;;;6.27;;
15665;SDS011;20725;51.196;3.510;2024-02-15T00:07:53;13.47;;;6.30;;
15665;SDS011;20725;51.196;3.510;2024-02-15T00:10:20;13.70;;;6.30;;
15665;SDS011;20725;51.196;3.510;2024-02-15T00:12:50;9.40;;;5.70;;
15665;SDS011;20725;51.196;3.510;2024-02-15T00:15:17;16.00;;;6.10;;
15665;SDS011;20725;51.196;3.510;2024-02-15T00:17:44;9.10;;;5.93;;
15665;SDS011;20725;51.196;3.510;2024-02-15T00:20:13;8.90;;;5.10;;
15665;SDS011;20725;51.196;3.510;2024-02-15T00:22:41;14.67;;;5.50;;
15665;SDS011;20725;51.196;3.510;2024-02-15T00:25:10;12.83;;;5.67;;
15665;SDS011;20725;51.196;3.510;2024-02-15T00:27:39;8.73;;;5.20;;
15665;SDS011;20725;51.196;3.510;2024-02-15T00:30:06;16.87;;;6.00;;
15665;SDS011;20725;51.196;3.510;2024-02-15T00:32:34;11.57;;;5.60;;
15665;SDS011;20725;51.196;3.510;2024-02-15T00:35:01;16.47;;;6.47;;
15665;SDS011;20725;51.196;3.510;2024-02-15T00:37:31;9.97;;;5.50;;
15665;SDS011;20725;51.196;3.510;2024-02-15T00:39:58;14.77;;;5.90;;
15665;SDS011;20725;51.196;3.510;2024-02-15T00:42:27;15.70;;;4.97;;
15665;SDS011;20725;51.196;3.510;2024-02-15T00:44:54;14.50;;;6.03;;
15665;SDS011;20725;51.196;3.510;2024-02-15T00:47:21;15.17;;;5.70;;
15665;SDS011;20725;51.196;3.510;2024-02-15T00:49:48;14.57;;;5.90;;
15665;SDS011;20725;51.196;3.510;2024-02-15T00:52:16;12.13;;;5.50;;
15665;SDS011;20725;51.196;3.510;2024-02-15T00:54:43;12.97;;;5.57;;
15665;SDS011;20725;51.196;3.510;2024-02-15T00:57:11;13.60;;;5.87;;
15665;SDS011;20725;51.196;3.510;2024-02-15T00:59:39;12.80;;;4.37;;
15665;SDS011;20725;51.196;3.510;2024-02-15T01:02:06;20.13;;;6.47;;
15665;SDS011;20725;51.196;3.510;2024-02-15T01:04:34;15.93;;;5.60;;
15665;SDS011;20725;51.196;3.510;2024-02-15T01:07:01;14.03;;;5.83;;
15665;SDS011;20725;51.196;3.510;2024-02-15T01:09:29;11.93;;;4.83;;
15665;SDS011;20725;51.196;3.510;2024-02-15T01:11:56;9.17;;;4.13;;
15665;SDS011;20725;51.196;3.510;2024-02-15T01:14:23;8.20;;;5.20;;
15665;SDS011;20725;51.196;3.510;2024-02-15T01:16:56;10.43;;;4.50;;
15665;SDS011;20725;51.196;3.510;2024-02-15T01:19:23;9.20;;;4.80;;
15665;SDS011;20725;51.196;3.510;2024-02-15T01:21:50;11.37;;;4.47;;
15665;SDS011;20725;51.196;3.510;2024-02-15T01:24:18;9.73;;;5.07;;
15665;SDS011;20725;51.196;3.510;2024-02-15T01:26:45;9.47;;;3.97;;
15665;SDS011;20725;51.196;3.510;2024-02-15T01:29:13;13.40;;;5.40;;
15665;SDS011;20725;51.196;3.510;2024-02-15T01:31:40;11.17;;;5.53;;
15665;SDS011;20725;51.196;3.510;2024-02-15T01:34:08;19.27;;;5.80;;
15665;SDS011;20725;51.196;3.510;2024-02-15T01:36:36;13.17;;;5.60;;
15665;SDS011;20725;51.196;3.510;2024-02-15T01:39:03;12.43;;;5.43;;
15665;SDS011;20725;51.196;3.510;2024-02-15T01:41:30;22.27;;;6.47;;
15665;SDS011;20725;51.196;3.510;2024-02-15T01:43:57;16.23;;;6.83;;
15665;SDS011;20725;51.196;3.510;2024-02-15T01:46:25;17.20;;;6.20;;
15665;SDS011;20725;51.196;3.510;2024-02-15T01:48:53;17.40;;;6.07;;
15665;SDS011;20725;51.196;3.510;2024-02-15T01:51:22;9.87;;;4.67;;
15665;SDS011;20725;51.196;3.510;2024-02-15T01:53:50;12.60;;;5.77;;
15665;SDS011;20725;51.196;3.510;2024-02-15T01:56:19;13.43;;;6.37;;
15665;SDS011;20725;51.196;3.510;2024-02-15T01:58:49;13.93;;;5.90;;
15665;SDS011;20725;51.196;3.510;2024-02-15T02:01:16;14.00;;;5.57;;
15665;SDS011;20725;51.196;3.510;2024-02-15T02:03:43;11.17;;;4.40;;
15665;SDS011;20725;51.196;3.510;2024-02-15T02:06:11;15.10;;;5.77;;
15665;SDS011;20725;51.196;3.510;2024-02-15T02:08:40;19.33;;;6.00;;
15665;SDS011;20725;51.196;3.510;2024-02-15T02:11:07;9.73;;;5.47;;
15665;SDS011;20725;51.196;3.510;2024-02-15T02:13:35;8.80;;;5.10;;
15665;SDS011;20725;51.196;3.510;2024-02-15T02:16:02;13.60;;;5.50;;
15665;SDS011;20725;51.196;3.510;2024-02-15T02:18:29;15.07;;;6.37;;
15665;SDS011;20725;51.196;3.510;2024-02-15T02:20:56;19.07;;;7.57;;
15665;SDS011;20725;51.196;3.510;2024-02-15T02:23:25;20.37;;;6.73;;
15665;SDS011;20725;51.196;3.510;2024-02-15T02:25:54;11.90;;;6.17;;
15665;SDS011;20725;51.196;3.510;2024-02-15T02:28:21;11.90;;;5.60;;
15665;SDS011;20725;51.196;3.510;2024-02-15T02:30:48;9.60;;;4.70;;
15665;SDS011;20725;51.196;3.510;2024-02-15T02:33:15;13.93;;;5.10;;
15665;SDS011;20725;51.196;3.510;2024-02-15T02:35:44;10.67;;;5.97;;
15665;SDS011;20725;51.196;3.510;2024-02-15T02:38:11;15.23;;;6.60;;
15665;SDS011;20725;51.196;3.510;2024-02-15T02:40:39;24.70;;;8.20;;
15665;SDS011;20725;51.196;3.510;2024-02-15T02:43:08;15.63;;;6.67;;
15665;SDS011;20725;51.196;3.510;2024-02-15T02:45:35;18.13;;;6.97;;
15665;SDS011;20725;51.196;3.510;2024-02-15T02:48:03;17.07;;;7.70;;
15665;SDS011;20725;51.196;3.510;2024-02-15T02:50:30;13.70;;;7.33;;
15665;SDS011;20725;51.196;3.510;2024-02-15T02:52:57;19.13;;;8.20;;
15665;SDS011;20725;51.196;3.510;2024-02-15T02:55:25;15.97;;;7.47;;
15665;SDS011;20725;51.196;3.510;2024-02-15T02:57:52;15.63;;;7.13;;
15665;SDS011;20725;51.196;3.510;2024-02-15T03:00:21;15.50;;;6.77;;
15665;SDS011;20725;51.196;3.510;2024-02-15T03:02:49;19.80;;;7.57;;
15665;SDS011;20725;51.196;3.510;2024-02-15T03:05:16;17.67;;;7.73;;
15665;SDS011;20725;51.196;3.510;2024-02-15T03:07:45;12.10;;;7.57;;
15665;SDS011;20725;51.196;3.510;2024-02-15T03:10:12;12.27;;;6.07;;
15665;SDS011;20725;51.196;3.510;2024-02-15T03:12:40;9.73;;;6.17;;
15665;SDS011;20725;51.196;3.510;2024-02-15T03:15:12;17.30;;;6.97;;
15665;SDS011;20725;51.196;3.510;2024-02-15T03:17:41;14.57;;;7.87;;
15665;SDS011;20725;51.196;3.510;2024-02-15T03:20:09;18.47;;;8.03;;
15665;SDS011;20725;51.196;3.510;2024-02-15T03:22:37;12.53;;;7.97;;
15665;SDS011;20725;51.196;3.510;2024-02-15T03:25:05;18.57;;;7.97;;
15665;SDS011;20725;51.196;3.510;2024-02-15T03:27:33;18.87;;;7.77;;
15665;SDS011;20725;51.196;3.510;2024-02-15T03:30:00;16.90;;;8.23;;
15665;SDS011;20725;51.196;3.510;2024-02-15T03:32:29;18.90;;;7.63;;
15665;SDS011;20725;51.196;3.510;2024-02-15T03:34:57;18.90;;;8.23;;
15665;SDS011;20725;51.196;3.510;2024-02-15T03:37:26;15.37;;;7.70;;
15665;SDS011;20725;51.196;3.510;2024-02-15T03:39:54;18.10;;;7.83;;
15665;SDS011;20725;51.196;3.510;2024-02-15T03:42:21;14.33;;;7.63;;
15665;SDS011;20725;51.196;3.510;2024-02-15T03:44:48;14.50;;;6.13;;
15665;SDS011;20725;51.196;3.510;2024-02-15T03:47:15;10.10;;;7.20;;
15665;SDS011;20725;51.196;3.510;2024-02-15T03:49:44;13.77;;;8.63;;
15665;SDS011;20725;51.196;3.510;2024-02-15T03:52:12;19.37;;;8.73;;
15665;SDS011;20725;51.196;3.510;2024-02-15T03:54:40;16.73;;;8.50;;
15665;SDS011;20725;51.196;3.510;2024-02-15T03:57:08;14.57;;;7.70;;
15665;SDS011;20725;51.196;3.510;2024-02-15T03:59:36;17.77;;;8.13;;
15665;SDS011;20725;51.196;3.510;2024-02-15T04:02:05;20.07;;;8.97;;
15665;SDS011;20725;51.196;3.510;2024-02-15T04:04:39;19.80;;;9.60;;
15665;SDS011;20725;51.196;3.510;2024-02-15T04:07:13;14.13;;;9.13;;
15665;SDS011;20725;51.196;3.510;2024-02-15T04:09:41;17.77;;;9.77;;
15665;SDS011;20725;51.196;3.510;2024-02-15T04:12:08;17.73;;;8.83;;
15665;SDS011;20725;51.196;3.510;2024-02-15T04:14:36;21.67;;;10.73;;
15665;SDS011;20725;51.196;3.510;2024-02-15T04:17:04;14.63;;;8.87;;
15665;SDS011;20725;51.196;3.510;2024-02-15T04:19:31;17.67;;;9.17;;
15665;SDS011;20725;51.196;3.510;2024-02-15T04:21:59;17.90;;;9.23;;
15665;SDS011;20725;51.196;3.510;2024-02-15T04:24:30;14.70;;;7.33;;
15665;SDS011;20725;51.196;3.510;2024-02-15T04:26:58;19.90;;;9.53;;
15665;SDS011;20725;51.196;3.510;2024-02-15T04:29:25;20.07;;;9.77;;
15665;SDS011;20725;51.196;3.510;2024-02-15T04:31:52;19.30;;;8.07;;
15665;SDS011;20725;51.196;3.510;2024-02-15T04:34:20;15.67;;;7.07;;
15665;SDS011;20725;51.196;3.510;2024-02-15T04:36:47;13.00;;;7.87;;
15665;SDS011;20725;51.196;3.510;2024-02-15T04:39:16;15.00;;;8.47;;
15665;SDS011;20725;51.196;3.510;2024-02-15T04:41:50;14.47;;;7.07;;
15665;SDS011;20725;51.196;3.510;2024-02-15T04:44:17;14.77;;;5.90;;
15665;SDS011;20725;51.196;3.510;2024-02-15T04:46:45;9.17;;;5.83;;
15665;SDS011;20725;51.196;3.510;2024-02-15T04:49:14;9.23;;;6.40;;
15665;SDS011;20725;51.196;3.510;2024-02-15T04:51:41;12.43;;;6.93;;
15665;SDS011;20725;51.196;3.510;2024-02-15T04:54:09;12.80;;;6.97;;
15665;SDS011;20725;51.196;3.510;2024-02-15T04:56:38;10.77;;;6.03;;
15665;SDS011;20725;51.196;3.510;2024-02-15T04:59:06;12.87;;;5.43;;
15665;SDS011;20725;51.196;3.510;2024-02-15T05:01:34;10.60;;;6.60;;
15665;SDS011;20725;51.196;3.510;2024-02-15T05:04:01;16.30;;;6.77;;
15665;SDS011;20725;51.196;3.510;2024-02-15T05:06:32;10.27;;;6.17;;
15665;SDS011;20725;51.196;3.510;2024-02-15T05:09:01;9.53;;;5.20;;
15665;SDS011;20725;51.196;3.510;2024-02-15T05:11:32;11.13;;;5.40;;
15665;SDS011;20725;51.196;3.510;2024-02-15T05:14:01;11.93;;;6.23;;
15665;SDS011;20725;51.196;3.510;2024-02-15T05:16:31;13.10;;;6.27;;
15665;SDS011;20725;51.196;3.510;2024-02-15T05:18:58;7.67;;;5.90;;
15665;SDS011;20725;51.196;3.510;2024-02-15T05:21:25;18.70;;;6.93;;
15665;SDS011;20725;51.196;3.510;2024-02-15T05:23:53;13.60;;;6.90;;
15665;SDS011;20725;51.196;3.510;2024-02-15T05:26:22;10.53;;;7.00;;
15665;SDS011;20725;51.196;3.510;2024-02-15T05:28:49;12.63;;;6.97;;
15665;SDS011;20725;51.196;3.510;2024-02-15T05:31:17;16.20;;;6.47;;
15665;SDS011;20725;51.196;3.510;2024-02-15T05:33:46;12.73;;;6.77;;
15665;SDS011;20725;51.196;3.510;2024-02-15T05:36:14;14.77;;;6.67;;
15665;SDS011;20725;51.196;3.510;2024-02-15T05:38:42;15.03;;;6.30;;
15665;SDS011;20725;51.196;3.510;2024-02-15T05:41:10;13.97;;;6.37;;
15665;SDS011;20725;51.196;3.510;2024-02-15T05:43:38;18.07;;;7.33;;
15665;SDS011;20725;51.196;3.510;2024-02-15T05:46:06;12.23;;;7.17;;
15665;SDS011;20725;51.196;3.510;2024-02-15T05:48:34;13.93;;;6.97;;
15665;SDS011;20725;51.196;3.510;2024-02-15T05:51:03;11.27;;;7.73;;
15665;SDS011;20725;51.196;3.510;2024-02-15T05:53:31;12.67;;;7.13;;
15665;SDS011;20725;51.196;3.510;2024-02-15T05:56:01;13.10;;;7.70;;
15665;SDS011;20725;51.196;3.510;2024-02-15T05:58:29;14.53;;;8.17;;
15665;SDS011;20725;51.196;3.510;2024-02-15T06:00:56;13.33;;;7.90;;
15665;SDS011;20725;51.196;3.510;2024-02-15T06:03:26;16.90;;;8.77;;
15665;SDS011;20725;51.196;3.510;2024-02-15T06:05:53;12.67;;;7.27;;
15665;SDS011;20725;51.196;3.510;2024-02-15T06:08:24;19.10;;;8.73;;
15665;SDS011;20725;51.196;3.510;2024-02-15T06:10:52;13.37;;;7.60;;
15665;SDS011;20725;51.196;3.510;2024-02-15T06:13:19;13.63;;;8.40;;
15665;SDS011;20725;51.196;3.510;2024-02-15T06:15:46;13.43;;;8.27;;
15665;SDS011;20725;51.196;3.510;2024-02-15T06:18:17;14.83;;;8.53;;
15665;SDS011;20725;51.196;3.510;2024-02-15T06:20:46;17.17;;;8.40;;
15665;SDS011;20725;51.196;3.510;2024-02-15T06:23:15;17.87;;;8.17;;
15665;SDS011;20725;51.196;3.510;2024-02-15T06:25:44;15.43;;;8.10;;
15665;SDS011;20725;51.196;3.510;2024-02-15T06:28:12;12.63;;;8.20;;
15665;SDS011;20725;51.196;3.510;2024-02-15T06:30:59;17.37;;;8.10;;
15665;SDS011;20725;51.196;3.510;2024-02-15T06:33:44;13.63;;;7.33;;
15665;SDS011;20725;51.196;3.510;2024-02-15T06:36:29;14.97;;;7.17;;
15665;SDS011;20725;51.196;3.510;2024-02-15T06:39:13;14.30;;;8.37;;
15665;SDS011;20725;51.196;3.510;2024-02-15T06:41:59;23.13;;;7.87;;
15665;SDS011;20725;51.196;3.510;2024-02-15T06:44:27;13.47;;;7.80;;
15665;SDS011;20725;51.196;3.510;2024-02-15T06:46:54;14.67;;;7.30;;
15665;SDS011;20725;51.196;3.510;2024-02-15T06:49:22;15.20;;;7.93;;
15665;SDS011;20725;51.196;3.510;2024-02-15T06:51:50;15.40;;;8.20;;
15665;SDS011;20725;51.196;3.510;2024-02-15T06:54:18;17.47;;;9.37;;
15665;SDS011;20725;51.196;3.510;2024-02-15T06:56:45;12.20;;;7.50;;
15665;SDS011;20725;51.196;3.510;2024-02-15T06:59:14;22.30;;;7.83;;
15665;SDS011;20725;51.196;3.510;2024-02-15T07:01:43;11.67;;;8.13;;
15665;SDS011;20725;51.196;3.510;2024-02-15T07:04:10;15.07;;;8.40;;
15665;SDS011;20725;51.196;3.510;2024-02-15T07:06:37;16.13;;;7.60;;
15665;SDS011;20725;51.196;3.510;2024-02-15T07:09:05;11.33;;;7.77;;
15665;SDS011;20725;51.196;3.510;2024-02-15T07:11:32;17.80;;;8.33;;
15665;SDS011;20725;51.196;3.510;2024-02-15T07:13:59;16.77;;;7.43;;
15665;SDS011;20725;51.196;3.510;2024-02-15T07:16:28;12.40;;;7.13;;
15665;SDS011;20725;51.196;3.510;2024-02-15T07:18:55;16.53;;;7.27;;
15665;SDS011;20725;51.196;3.510;2024-02-15T07:21:22;16.60;;;8.27;;
15665;SDS011;20725;51.196;3.510;2024-02-15T07:23:52;21.03;;;8.70;;
15665;SDS011;20725;51.196;3.510;2024-02-15T07:26:20;14.67;;;7.90;;
15665;SDS011;20725;51.196;3.510;2024-02-15T07:28:49;24.53;;;8.87;;
15665;SDS011;20725;51.196;3.510;2024-02-15T07:31:18;15.23;;;7.80;;
15665;SDS011;20725;51.196;3.510;2024-02-15T07:33:47;17.00;;;9.23;;
15665;SDS011;20725;51.196;3.510;2024-02-15T07:36:17;14.93;;;7.13;;
15665;SDS011;20725;51.196;3.510;2024-02-15T07:38:46;18.30;;;9.07;;
15665;SDS011;20725;51.196;3.510;2024-02-15T07:41:14;19.03;;;9.17;;
15665;SDS011;20725;51.196;3.510;2024-02-15T07:43:43;11.40;;;7.17;;
15665;SDS011;20725;51.196;3.510;2024-02-15T07:46:12;16.87;;;7.97;;
15665;SDS011;20725;51.196;3.510;2024-02-15T07:48:41;15.63;;;7.20;;
15665;SDS011;20725;51.196;3.510;2024-02-15T07:51:12;10.33;;;6.07;;
15665;SDS011;20725;51.196;3.510;2024-02-15T07:53:40;14.53;;;6.30;;
15665;SDS011;20725;51.196;3.510;2024-02-15T07:56:07;13.37;;;8.00;;
15665;SDS011;20725;51.196;3.510;2024-02-15T07:58:37;14.47;;;8.43;;
15665;SDS011;20725;51.196;3.510;2024-02-15T08:01:06;10.87;;;7.33;;
15665;SDS011;20725;51.196;3.510;2024-02-15T08:03:34;10.77;;;5.23;;
15665;SDS011;20725;51.196;3.510;2024-02-15T08:06:01;8.80;;;5.93;;
15665;SDS011;20725;51.196;3.510;2024-02-15T08:08:33;16.73;;;7.23;;
15665;SDS011;20725;51.196;3.510;2024-02-15T08:11:01;11.30;;;5.33;;
15665;SDS011;20725;51.196;3.510;2024-02-15T08:13:28;14.93;;;7.33;;
15665;SDS011;20725;51.196;3.510;2024-02-15T08:15:56;16.67;;;6.73;;
15665;SDS011;20725;51.196;3.510;2024-02-15T08:18:24;10.43;;;6.27;;
15665;SDS011;20725;51.196;3.510;2024-02-15T08:20:51;12.50;;;6.03;;
15665;SDS011;20725;51.196;3.510;2024-02-15T08:23:18;12.73;;;5.80;;
15665;SDS011;20725;51.196;3.510;2024-02-15T08:25:47;7.83;;;5.93;;
15665;SDS011;20725;51.196;3.510;2024-02-15T08:28:14;12.63;;;6.13;;
15665;SDS011;20725;51.196;3.510;2024-02-15T08:30:41;10.27;;;5.47;;
15665;SDS011;20725;51.196;3.510;2024-02-15T08:33:08;10.80;;;6.00;;
15665;SDS011;20725;51.196;3.510;2024-02-15T08:35:36;9.60;;;5.90;;
15665;SDS011;20725;51.196;3.510;2024-02-15T08:38:05;11.33;;;6.47;;
15665;SDS011;20725;51.196;3.510;2024-02-15T08:40:32;11.53;;;5.43;;
15665;SDS011;20725;51.196;3.510;2024-02-15T08:43:01;6.57;;;5.70;;
15665;SDS011;20725;51.196;3.510;2024-02-15T08:45:28;9.17;;;6.30;;
15665;SDS011;20725;51.196;3.510;2024-02-15T08:47:56;12.80;;;6.07;;
15665;SDS011;20725;51.196;3.510;2024-02-15T08:50:23;10.63;;;6.63;;
15665;SDS011;20725;51.196;3.510;2024-02-15T08:52:50;10.57;;;5.43;;
15665;SDS011;20725;51.196;3.510;2024-02-15T08:55:17;5.73;;;3.67;;
15665;SDS011;20725;51.196;3.510;2024-02-15T08:57:49;7.67;;;5.60;;
15665;SDS011;20725;51.196;3.510;2024-02-15T09:00:17;9.07;;;5.63;;
15665;SDS011;20725;51.196;3.510;2024-02-15T09:02:45;7.20;;;4.87;;
15665;SDS011;20725;51.196;3.510;2024-02-15T09:05:12;7.87;;;5.77;;
15665;SDS011;20725;51.196;3.510;2024-02-15T09:07:41;9.63;;;5.73;;
15665;SDS011;20725;51.196;3.510;2024-02-15T09:10:09;7.47;;;5.33;;
15665;SDS011;20725;51.196;3.510;2024-02-15T09:12:36;6.97;;;4.30;;
15665;SDS011;20725;51.196;3.510;2024-02-15T09:15:05;7.97;;;4.67;;
15665;SDS011;20725;51.196;3.510;2024-02-15T09:17:34;10.80;;;4.77;;
15665;SDS011;20725;51.196;3.510;2024-02-15T09:20:05;6.23;;;4.63;;
15665;SDS011;20725;51.196;3.510;2024-02-15T09:22:32;5.50;;;4.17;;
15665;SDS011;20725;51.196;3.510;2024-02-15T09:25:01;7.67;;;3.70;;
15665;SDS011;20725;51.196;3.510;2024-02-15T09:27:28;5.13;;;4.57;;
15665;SDS011;20725;51.196;3.510;2024-02-15T09:29:55;8.07;;;4.03;;
15665;SDS011;20725;51.196;3.510;2024-02-15T09:32:22;8.67;;;3.90;;
15665;SDS011;20725;51.196;3.510;2024-02-15T09:34:51;6.97;;;3.10;;
15665;SDS011;20725;51.196;3.510;2024-02-15T09:37:18;6.03;;;4.30;;
15665;SDS011;20725;51.196;3.510;2024-02-15T09:39:45;7.57;;;3.93;;
15665;SDS011;20725;51.196;3.510;2024-02-15T09:42:12;5.67;;;3.57;;
15665;SDS011;20725;51.196;3.510;2024-02-15T09:44:40;5.70;;;3.40;;
15665;SDS011;20725;51.196;3.510;2024-02-15T09:47:09;6.30;;;3.57;;
15665;SDS011;20725;51.196;3.510;2024-02-15T09:49:40;4.50;;;3.73;;
15665;SDS011;20725;51.196;3.510;2024-02-15T09:52:09;7.00;;;3.70;;
15665;SDS011;20725;51.196;3.510;2024-02-15T09:54:38;3.90;;;3.10;;
15665;SDS011;20725;51.196;3.510;2024-02-15T09:57:08;7.47;;;3.83;;
15665;SDS011;20725;51.196;3.510;2024-02-15T09:59:36;7.97;;;3.50;;
15665;SDS011;20725;51.196;3.510;2024-02-15T10:02:04;4.60;;;2.90;;
15665;SDS011;20725;51.196;3.510;2024-02-15T10:04:35;4.07;;;2.70;;
15665;SDS011;20725;51.196;3.510;2024-02-15T10:07:03;6.00;;;3.60;;
15665;SDS011;20725;51.196;3.510;2024-02-15T10:09:35;3.63;;;2.90;;
15665;SDS011;20725;51.196;3.510;2024-02-15T10:12:03;3.97;;;3.10;;
15665;SDS011;20725;51.196;3.510;2024-02-15T10:14:32;6.23;;;2.80;;
15665;SDS011;20725;51.196;3.510;2024-02-15T10:17:06;4.77;;;2.77;;
15665;SDS011;20725;51.196;3.510;2024-02-15T10:19:36;5.37;;;3.53;;
15665;SDS011;20725;51.196;3.510;2024-02-15T10:22:06;6.17;;;3.23;;
15665;SDS011;20725;51.196;3.510;2024-02-15T10:24:35;3.73;;;2.93;;
15665;SDS011;20725;51.196;3.510;2024-02-15T10:27:04;3.20;;;2.90;;
15665;SDS011;20725;51.196;3.510;2024-02-15T10:29:32;3.77;;;2.70;;
15665;SDS011;20725;51.196;3.510;2024-02-15T10:32:00;5.27;;;3.53;;
15665;SDS011;20725;51.196;3.510;2024-02-15T10:34:27;5.80;;;2.90;;
15665;SDS011;20725;51.196;3.510;2024-02-15T10:36:56;4.13;;;2.47;;
15665;SDS011;20725;51.196;3.510;2024-02-15T10:39:38;2.87;;;2.33;;
15665;SDS011;20725;51.196;3.510;2024-02-15T10:42:06;5.40;;;2.80;;
15665;SDS011;20725;51.196;3.510;2024-02-15T10:44:36;4.33;;;2.37;;
15665;SDS011;20725;51.196;3.510;2024-02-15T10:47:05;3.20;;;2.07;;
15665;SDS011;20725;51.196;3.510;2024-02-15T10:49:33;4.60;;;2.07;;
15665;SDS011;20725;51.196;3.510;2024-02-15T10:52:02;3.60;;;2.13;;
15665;SDS011;20725;51.196;3.510;2024-02-15T10:54:43;2.83;;;1.97;;
15665;SDS011;20725;51.196;3.510;2024-02-15T10:57:13;3.50;;;1.93;;
15665;SDS011;20725;51.196;3.510;2024-02-15T10:59:45;8.30;;;2.27;;
15665;SDS011;20725;51.196;3.510;2024-02-15T11:02:20;4.00;;;2.00;;
15665;SDS011;20725;51.196;3.510;2024-02-15T11:04:51;5.63;;;2.30;;
15665;SDS011;20725;51.196;3.510;2024-02-15T11:07:21;2.80;;;1.40;;
15665;SDS011;20725;51.196;3.510;2024-02-15T11:09:51;3.40;;;2.10;;
15665;SDS011;20725;51.196;3.510;2024-02-15T11:12:19;2.87;;;1.97;;
15665;SDS011;20725;51.196;3.510;2024-02-15T11:14:47;3.47;;;2.40;;
15665;SDS011;20725;51.196;3.510;2024-02-15T11:19:58;2.97;;;1.80;;
15665;SDS011;20725;51.196;3.510;2024-02-15T11:22:25;4.87;;;2.30;;
15665;SDS011;20725;51.196;3.510;2024-02-15T11:24:54;4.67;;;1.60;;
15665;SDS011;20725;51.196;3.510;2024-02-15T11:27:25;5.03;;;1.90;;
15665;SDS011;20725;51.196;3.510;2024-02-15T11:29:53;5.03;;;1.90;;
15665;SDS011;20725;51.196;3.510;2024-02-15T11:35:09;2.90;;;1.97;;
15665;SDS011;20725;51.196;3.510;2024-02-15T11:37:49;5.23;;;2.10;;
15665;SDS011;20725;51.196;3.510;2024-02-15T11:40:19;2.97;;;2.23;;
15665;SDS011;20725;51.196;3.510;2024-02-15T11:42:48;4.20;;;2.40;;
15665;SDS011;20725;51.196;3.510;2024-02-15T11:45:15;3.50;;;2.00;;
15665;SDS011;20725;51.196;3.510;2024-02-15T11:47:47;4.97;;;2.60;;
15665;SDS011;20725;51.196;3.510;2024-02-15T11:50:15;5.10;;;2.03;;
15665;SDS011;20725;51.196;3.510;2024-02-15T11:52:43;3.60;;;2.27;;
15665;SDS011;20725;51.196;3.510;2024-02-15T11:55:11;4.03;;;2.37;;
15665;SDS011;20725;51.196;3.510;2024-02-15T11:57:40;2.80;;;2.27;;
15665;SDS011;20725;51.196;3.510;2024-02-15T12:00:24;4.17;;;2.50;;
15665;SDS011;20725;51.196;3.510;2024-02-15T12:03:09;4.50;;;2.40;;
15665;SDS011;20725;51.196;3.510;2024-02-15T12:05:54;4.20;;;2.07;;
15665;SDS011;20725;51.196;3.510;2024-02-15T12:08:39;3.03;;;2.30;;
15665;SDS011;20725;51.196;3.510;2024-02-15T12:11:24;3.83;;;2.57;;
15665;SDS011;20725;51.196;3.510;2024-02-15T12:14:13;3.90;;;2.40;;
15665;SDS011;20725;51.196;3.510;2024-02-15T12:16:59;3.20;;;2.27;;
15665;SDS011;20725;51.196;3.510;2024-02-15T12:19:44;4.27;;;2.57;;
15665;SDS011;20725;51.196;3.510;2024-02-15T12:22:12;5.17;;;2.60;;
15665;SDS011;20725;51.196;3.510;2024-02-15T12:24:39;6.80;;;2.57;;
15665;SDS011;20725;51.196;3.510;2024-02-15T12:27:07;4.23;;;2.40;;
15665;SDS011;20725;51.196;3.510;2024-02-15T12:29:35;6.27;;;2.30;;
15665;SDS011;20725;51.196;3.510;2024-02-15T12:32:03;6.13;;;2.20;;
15665;SDS011;20725;51.196;3.510;2024-02-15T12:34:30;4.77;;;2.37;;
15665;SDS011;20725;51.196;3.510;2024-02-15T12:37:04;4.13;;;2.10;;
15665;SDS011;20725;51.196;3.510;2024-02-15T12:39:33;3.77;;;2.43;;
15665;SDS011;20725;51.196;3.510;2024-02-15T12:42:03;4.57;;;2.40;;
15665;SDS011;20725;51.196;3.510;2024-02-15T12:44:36;4.30;;;2.33;;
15665;SDS011;20725;51.196;3.510;2024-02-15T12:47:06;4.13;;;2.53;;
15665;SDS011;20725;51.196;3.510;2024-02-15T12:49:33;4.33;;;2.43;;
15665;SDS011;20725;51.196;3.510;2024-02-15T12:54:47;2.77;;;2.20;;
15665;SDS011;20725;51.196;3.510;2024-02-15T12:57:14;5.10;;;2.67;;
15665;SDS011;20725;51.196;3.510;2024-02-15T12:59:43;4.20;;;2.50;;
15665;SDS011;20725;51.196;3.510;2024-02-15T13:02:10;3.87;;;2.03;;
15665;SDS011;20725;51.196;3.510;2024-02-15T13:04:39;2.33;;;1.73;;
15665;SDS011;20725;51.196;3.510;2024-02-15T13:07:06;3.57;;;2.03;;
15665;SDS011;20725;51.196;3.510;2024-02-15T13:09:34;3.93;;;2.00;;
15665;SDS011;20725;51.196;3.510;2024-02-15T13:12:01;3.17;;;1.80;;
15665;SDS011;20725;51.196;3.510;2024-02-15T13:14:29;4.60;;;2.10;;
15665;SDS011;20725;51.196;3.510;2024-02-15T13:16:57;6.40;;;1.83;;
15665;SDS011;20725;51.196;3.510;2024-02-15T13:19:26;5.47;;;2.17;;
15665;SDS011;20725;51.196;3.510;2024-02-15T13:21:53;4.43;;;2.10;;
15665;SDS011;20725;51.196;3.510;2024-02-15T13:24:22;5.80;;;2.20;;
15665;SDS011;20725;51.196;3.510;2024-02-15T13:26:51;3.37;;;2.17;;
15665;SDS011;20725;51.196;3.510;2024-02-15T13:29:18;3.23;;;2.03;;
15665;SDS011;20725;51.196;3.510;2024-02-15T13:31:46;2.03;;;1.80;;
15665;SDS011;20725;51.196;3.510;2024-02-15T13:34:17;4.27;;;1.97;;
15665;SDS011;20725;51.196;3.510;2024-02-15T13:36:45;7.07;;;2.13;;
15665;SDS011;20725;51.196;3.510;2024-02-15T13:39:14;3.13;;;1.80;;
15665;SDS011;20725;51.196;3.510;2024-02-15T13:41:43;4.47;;;1.83;;
15665;SDS011;20725;51.196;3.510;2024-02-15T13:44:12;4.20;;;2.20;;
15665;SDS011;20725;51.196;3.510;2024-02-15T13:46:39;3.23;;;2.00;;
15665;SDS011;20725;51.196;3.510;2024-02-15T13:49:07;4.33;;;2.17;;
15665;SDS011;20725;51.196;3.510;2024-02-15T13:51:38;3.20;;;2.27;;
15665;SDS011;20725;51.196;3.510;2024-02-15T13:54:06;7.27;;;2.20;;
15665;SDS011;20725;51.196;3.510;2024-02-15T13:56:34;6.70;;;2.13;;
15665;SDS011;20725;51.196;3.510;2024-02-15T13:59:01;3.73;;;1.93;;
15665;SDS011;20725;51.196;3.510;2024-02-15T14:01:30;5.27;;;2.10;;
15665;SDS011;20725;51.196;3.510;2024-02-15T14:03:59;3.77;;;2.33;;
15665;SDS011;20725;51.196;3.510;2024-02-15T14:06:27;3.10;;;2.30;;
15665;SDS011;20725;51.196;3.510;2024-02-15T14:08:56;5.40;;;2.13;;
15665;SDS011;20725;51.196;3.510;2024-02-15T14:11:23;6.07;;;2.07;;
15665;SDS011;20725;51.196;3.510;2024-02-15T14:13:50;4.23;;;2.53;;
15665;SDS011;20725;51.196;3.510;2024-02-15T14:16:23;4.47;;;2.10;;
15665;SDS011;20725;51.196;3.510;2024-02-15T14:18:55;4.97;;;2.00;;
15665;SDS011;20725;51.196;3.510;2024-02-15T14:21:22;3.70;;;2.07;;
15665;SDS011;20725;51.196;3.510;2024-02-15T14:23:50;5.10;;;2.30;;
15665;SDS011;20725;51.196;3.510;2024-02-15T14:26:19;2.27;;;2.03;;
15665;SDS011;20725;51.196;3.510;2024-02-15T14:28:52;3.27;;;1.70;;
15665;SDS011;20725;51.196;3.510;2024-02-15T14:31:20;5.03;;;2.27;;
15665;SDS011;20725;51.196;3.510;2024-02-15T14:34:05;2.30;;;1.67;;
15665;SDS011;20725;51.196;3.510;2024-02-15T14:36:32;3.37;;;1.70;;
15665;SDS011;20725;51.196;3.510;2024-02-15T14:39:01;4.17;;;1.93;;
15665;SDS011;20725;51.196;3.510;2024-02-15T14:41:31;3.90;;;2.00;;
15665;SDS011;20725;51.196;3.510;2024-02-15T14:44:01;2.17;;;1.67;;
15665;SDS011;20725;51.196;3.510;2024-02-15T14:46:28;5.17;;;2.10;;
15665;SDS011;20725;51.196;3.510;2024-02-15T14:48:55;6.17;;;2.13;;
15665;SDS011;20725;51.196;3.510;2024-02-15T14:51:23;6.10;;;2.17;;
15665;SDS011;20725;51.196;3.510;2024-02-15T14:53:50;3.70;;;1.77;;
15665;SDS011;20725;51.196;3.510;2024-02-15T14:56:18;2.03;;;1.83;;
15665;SDS011;20725;51.196;3.510;2024-02-15T14:58:46;3.97;;;2.00;;